sensor_id;sensor_type;location;lat;lon;timestamp;P1;durP1;ratioP1;P2;durP2;ratioP2
323;SDS011;149;51.094;17.002;2023-03-23T00:01:21;29.85;;;17.50;;
323;SDS011;149;51.094;17.002;2023-03-23T00:03:48;109.35;;;45.53;;
323;SDS011;149;51.094;17.002;2023-03-23T00:06:16;32.97;;;18.63;;
323;SDS011;149;51.094;17.002;2023-03-23T00:08:44;104.10;;;42.03;;
323;SDS011;149;51.094;17.002;2023-03-23T00:11:15;29.05;;;16.88;;
323;SDS011;149;51.094;17.002;2023-03-23T00:13:45;19.70;;;13.98;;
323;SDS011;149;51.094;17.002;2023-03-23T00:16:18;20.17;;;12.63;;
323;SDS011;149;51.094;17.002;2023-03-23T00:18:50;18.52;;;13.80;;
323;SDS011;149;51.094;17.002;2023-03-23T00:21:19;18.10;;;12.23;;
323;SDS011;149;51.094;17.002;2023-03-23T00:23:53;17.63;;;11.82;;
323;SDS011;149;51.094;17.002;2023-03-23T00:26:18;17.45;;;12.98;;
323;SDS011;149;51.094;17.002;2023-03-23T00:28:44;21.00;;;13.53;;
323;SDS011;149;51.094;17.002;2023-03-23T00:31:12;16.67;;;12.43;;
323;SDS011;149;51.094;17.002;2023-03-23T00:33:38;17.05;;;12.52;;
323;SDS011;149;51.094;17.002;2023-03-23T00:36:06;24.35;;;15.50;;
323;SDS011;149;51.094;17.002;2023-03-23T00:38:34;22.90;;;14.18;;
323;SDS011;149;51.094;17.002;2023-03-23T00:41:00;17.98;;;14.07;;
323;SDS011;149;51.094;17.002;2023-03-23T00:43:29;16.58;;;12.60;;
323;SDS011;149;51.094;17.002;2023-03-23T00:45:56;19.20;;;13.77;;
323;SDS011;149;51.094;17.002;2023-03-23T00:48:26;26.13;;;14.68;;
323;SDS011;149;51.094;17.002;2023-03-23T00:50:54;22.63;;;13.05;;
323;SDS011;149;51.094;17.002;2023-03-23T00:53:20;19.55;;;15.60;;
323;SDS011;149;51.094;17.002;2023-03-23T00:55:47;31.90;;;18.00;;
323;SDS011;149;51.094;17.002;2023-03-23T00:58:14;20.13;;;14.55;;
323;SDS011;149;51.094;17.002;2023-03-23T01:00:40;18.25;;;12.00;;
323;SDS011;149;51.094;17.002;2023-03-23T01:03:07;15.00;;;12.00;;
323;SDS011;149;51.094;17.002;2023-03-23T01:05:37;16.95;;;11.52;;
323;SDS011;149;51.094;17.002;2023-03-23T01:08:05;15.05;;;11.70;;
323;SDS011;149;51.094;17.002;2023-03-23T01:10:31;17.42;;;10.43;;
323;SDS011;149;51.094;17.002;2023-03-23T01:12:58;12.40;;;10.27;;
323;SDS011;149;51.094;17.002;2023-03-23T01:15:28;11.55;;;9.45;;
323;SDS011;149;51.094;17.002;2023-03-23T01:17:54;14.43;;;10.68;;
323;SDS011;149;51.094;17.002;2023-03-23T01:20:20;15.57;;;10.00;;
323;SDS011;149;51.094;17.002;2023-03-23T01:22:47;16.13;;;10.77;;
323;SDS011;149;51.094;17.002;2023-03-23T01:25:13;16.73;;;11.32;;
323;SDS011;149;51.094;17.002;2023-03-23T01:27:40;18.30;;;10.75;;
323;SDS011;149;51.094;17.002;2023-03-23T01:30:07;14.32;;;9.75;;
323;SDS011;149;51.094;17.002;2023-03-23T01:32:35;11.55;;;9.80;;
323;SDS011;149;51.094;17.002;2023-03-23T01:35:01;13.40;;;9.13;;
323;SDS011;149;51.094;17.002;2023-03-23T01:37:27;11.07;;;8.80;;
323;SDS011;149;51.094;17.002;2023-03-23T01:39:53;12.10;;;8.75;;
323;SDS011;149;51.094;17.002;2023-03-23T01:42:24;13.55;;;10.65;;
323;SDS011;149;51.094;17.002;2023-03-23T01:47:40;18.75;;;9.38;;
323;SDS011;149;51.094;17.002;2023-03-23T01:50:06;13.02;;;9.65;;
323;SDS011;149;51.094;17.002;2023-03-23T01:52:33;13.80;;;9.93;;
323;SDS011;149;51.094;17.002;2023-03-23T01:55:01;13.05;;;9.30;;
323;SDS011;149;51.094;17.002;2023-03-23T01:57:28;9.90;;;8.40;;
323;SDS011;149;51.094;17.002;2023-03-23T01:59:57;11.82;;;7.85;;
323;SDS011;149;51.094;17.002;2023-03-23T02:02:32;23.75;;;14.88;;
323;SDS011;149;51.094;17.002;2023-03-23T02:05:02;13.27;;;9.77;;
323;SDS011;149;51.094;17.002;2023-03-23T02:07:33;12.93;;;9.90;;
323;SDS011;149;51.094;17.002;2023-03-23T02:10:00;10.38;;;8.00;;
323;SDS011;149;51.094;17.002;2023-03-23T02:12:25;10.07;;;8.27;;
323;SDS011;149;51.094;17.002;2023-03-23T02:14:52;11.35;;;8.95;;
323;SDS011;149;51.094;17.002;2023-03-23T02:17:20;14.07;;;9.10;;
323;SDS011;149;51.094;17.002;2023-03-23T02:19:55;16.23;;;10.15;;
323;SDS011;149;51.094;17.002;2023-03-23T02:36:20;9.90;;;7.70;;
323;SDS011;149;51.094;17.002;2023-03-23T02:41:23;9.10;;;7.40;;
323;SDS011;149;51.094;17.002;2023-03-23T02:43:52;11.82;;;8.90;;
323;SDS011;149;51.094;17.002;2023-03-23T02:46:19;9.60;;;8.13;;
323;SDS011;149;51.094;17.002;2023-03-23T02:48:46;9.88;;;7.97;;
323;SDS011;149;51.094;17.002;2023-03-23T02:51:16;10.15;;;7.15;;
323;SDS011;149;51.094;17.002;2023-03-23T02:53:45;10.90;;;8.90;;
323;SDS011;149;51.094;17.002;2023-03-23T02:56:13;9.25;;;8.18;;
323;SDS011;149;51.094;17.002;2023-03-23T02:58:39;12.87;;;8.00;;
323;SDS011;149;51.094;17.002;2023-03-23T03:03:50;8.88;;;6.82;;
323;SDS011;149;51.094;17.002;2023-03-23T03:11:31;8.57;;;6.45;;
323;SDS011;149;51.094;17.002;2023-03-23T03:14:08;10.20;;;7.10;;
323;SDS011;149;51.094;17.002;2023-03-23T03:19:37;7.07;;;6.18;;
323;SDS011;149;51.094;17.002;2023-03-23T03:22:05;11.23;;;7.82;;
323;SDS011;149;51.094;17.002;2023-03-23T03:24:33;10.18;;;6.80;;
323;SDS011;149;51.094;17.002;2023-03-23T03:27:02;10.07;;;7.78;;
323;SDS011;149;51.094;17.002;2023-03-23T03:29:32;8.00;;;6.13;;
323;SDS011;149;51.094;17.002;2023-03-23T03:32:01;6.95;;;5.97;;
323;SDS011;149;51.094;17.002;2023-03-23T03:34:31;7.28;;;6.20;;
323;SDS011;149;51.094;17.002;2023-03-23T03:36:58;8.35;;;6.13;;
323;SDS011;149;51.094;17.002;2023-03-23T03:39:25;7.38;;;5.40;;
323;SDS011;149;51.094;17.002;2023-03-23T03:41:53;8.82;;;6.28;;
323;SDS011;149;51.094;17.002;2023-03-23T03:44:20;6.00;;;5.38;;
323;SDS011;149;51.094;17.002;2023-03-23T03:46:45;5.80;;;4.97;;
323;SDS011;149;51.094;17.002;2023-03-23T03:49:11;9.80;;;7.00;;
323;SDS011;149;51.094;17.002;2023-03-23T03:51:38;6.63;;;6.03;;
323;SDS011;149;51.094;17.002;2023-03-23T03:54:06;7.60;;;5.93;;
323;SDS011;149;51.094;17.002;2023-03-23T03:56:32;8.75;;;5.47;;
323;SDS011;149;51.094;17.002;2023-03-23T03:59:01;8.60;;;6.25;;
323;SDS011;149;51.094;17.002;2023-03-23T04:01:27;12.27;;;4.90;;
323;SDS011;149;51.094;17.002;2023-03-23T04:03:54;6.18;;;5.60;;
323;SDS011;149;51.094;17.002;2023-03-23T04:06:20;10.32;;;5.72;;
323;SDS011;149;51.094;17.002;2023-03-23T04:08:46;11.88;;;6.00;;
323;SDS011;149;51.094;17.002;2023-03-23T04:11:13;6.00;;;5.40;;
323;SDS011;149;51.094;17.002;2023-03-23T04:13:40;9.82;;;5.22;;
323;SDS011;149;51.094;17.002;2023-03-23T04:16:06;7.35;;;5.45;;
323;SDS011;149;51.094;17.002;2023-03-23T04:18:33;11.35;;;5.38;;
323;SDS011;149;51.094;17.002;2023-03-23T04:21:01;7.15;;;5.88;;
323;SDS011;149;51.094;17.002;2023-03-23T04:23:28;5.97;;;5.40;;
323;SDS011;149;51.094;17.002;2023-03-23T04:25:58;10.98;;;6.05;;
323;SDS011;149;51.094;17.002;2023-03-23T04:28:25;6.43;;;5.20;;
323;SDS011;149;51.094;17.002;2023-03-23T04:30:51;9.10;;;5.60;;
323;SDS011;149;51.094;17.002;2023-03-23T04:33:24;8.13;;;5.15;;
323;SDS011;149;51.094;17.002;2023-03-23T04:35:53;8.18;;;5.93;;
323;SDS011;149;51.094;17.002;2023-03-23T04:38:20;8.80;;;6.15;;
323;SDS011;149;51.094;17.002;2023-03-23T04:40:49;8.40;;;5.70;;
323;SDS011;149;51.094;17.002;2023-03-23T04:43:20;10.60;;;5.05;;
323;SDS011;149;51.094;17.002;2023-03-23T04:45:53;6.95;;;5.25;;
323;SDS011;149;51.094;17.002;2023-03-23T04:48:27;6.40;;;4.93;;
323;SDS011;149;51.094;17.002;2023-03-23T04:51:00;6.03;;;4.80;;
323;SDS011;149;51.094;17.002;2023-03-23T04:53:28;5.65;;;5.10;;
323;SDS011;149;51.094;17.002;2023-03-23T04:55:54;6.70;;;5.32;;
323;SDS011;149;51.094;17.002;2023-03-23T04:58:20;8.68;;;6.30;;
323;SDS011;149;51.094;17.002;2023-03-23T05:00:48;5.72;;;4.90;;
323;SDS011;149;51.094;17.002;2023-03-23T05:03:16;6.40;;;5.18;;
323;SDS011;149;51.094;17.002;2023-03-23T05:05:43;5.57;;;4.97;;
323;SDS011;149;51.094;17.002;2023-03-23T05:08:15;4.97;;;4.30;;
323;SDS011;149;51.094;17.002;2023-03-23T05:10:41;5.35;;;4.85;;
323;SDS011;149;51.094;17.002;2023-03-23T05:13:14;8.98;;;5.35;;
323;SDS011;149;51.094;17.002;2023-03-23T05:15:40;6.85;;;5.00;;
323;SDS011;149;51.094;17.002;2023-03-23T05:18:06;6.13;;;5.43;;
323;SDS011;149;51.094;17.002;2023-03-23T05:20:34;5.90;;;5.32;;
323;SDS011;149;51.094;17.002;2023-03-23T05:23:01;9.65;;;4.40;;
323;SDS011;149;51.094;17.002;2023-03-23T05:25:26;7.60;;;5.30;;
323;SDS011;149;51.094;17.002;2023-03-23T05:27:52;5.70;;;4.72;;
323;SDS011;149;51.094;17.002;2023-03-23T05:30:19;11.00;;;5.07;;
323;SDS011;149;51.094;17.002;2023-03-23T05:32:47;6.63;;;4.30;;
323;SDS011;149;51.094;17.002;2023-03-23T05:35:16;6.72;;;4.75;;
323;SDS011;149;51.094;17.002;2023-03-23T05:37:44;6.82;;;4.47;;
323;SDS011;149;51.094;17.002;2023-03-23T05:40:10;7.32;;;4.75;;
323;SDS011;149;51.094;17.002;2023-03-23T05:42:37;6.13;;;4.88;;
323;SDS011;149;51.094;17.002;2023-03-23T05:45:06;8.80;;;6.75;;
323;SDS011;149;51.094;17.002;2023-03-23T05:47:34;6.40;;;5.00;;
323;SDS011;149;51.094;17.002;2023-03-23T05:50:01;7.18;;;5.32;;
323;SDS011;149;51.094;17.002;2023-03-23T05:52:27;5.33;;;4.40;;
323;SDS011;149;51.094;17.002;2023-03-23T05:54:53;6.43;;;4.23;;
323;SDS011;149;51.094;17.002;2023-03-23T05:57:19;6.80;;;5.15;;
323;SDS011;149;51.094;17.002;2023-03-23T05:59:48;4.93;;;4.43;;
323;SDS011;149;51.094;17.002;2023-03-23T06:02:14;6.32;;;3.95;;
323;SDS011;149;51.094;17.002;2023-03-23T06:04:40;5.70;;;4.45;;
323;SDS011;149;51.094;17.002;2023-03-23T06:07:07;11.32;;;5.03;;
323;SDS011;149;51.094;17.002;2023-03-23T06:09:38;5.10;;;4.60;;
323;SDS011;149;51.094;17.002;2023-03-23T06:12:04;6.05;;;4.00;;
323;SDS011;149;51.094;17.002;2023-03-23T06:14:30;4.30;;;3.90;;
323;SDS011;149;51.094;17.002;2023-03-23T06:16:56;7.23;;;5.07;;
323;SDS011;149;51.094;17.002;2023-03-23T06:19:22;5.78;;;4.30;;
323;SDS011;149;51.094;17.002;2023-03-23T06:21:48;4.95;;;3.70;;
323;SDS011;149;51.094;17.002;2023-03-23T06:24:15;7.45;;;4.25;;
323;SDS011;149;51.094;17.002;2023-03-23T06:26:41;7.00;;;4.60;;
323;SDS011;149;51.094;17.002;2023-03-23T06:29:06;5.63;;;4.33;;
323;SDS011;149;51.094;17.002;2023-03-23T06:31:37;12.33;;;5.80;;
323;SDS011;149;51.094;17.002;2023-03-23T06:34:05;8.40;;;4.07;;
323;SDS011;149;51.094;17.002;2023-03-23T06:36:31;7.97;;;3.93;;
323;SDS011;149;51.094;17.002;2023-03-23T06:38:57;5.27;;;3.70;;
323;SDS011;149;51.094;17.002;2023-03-23T06:41:23;6.13;;;4.77;;
323;SDS011;149;51.094;17.002;2023-03-23T06:43:49;8.37;;;4.60;;
323;SDS011;149;51.094;17.002;2023-03-23T06:46:14;4.97;;;4.07;;
323;SDS011;149;51.094;17.002;2023-03-23T06:48:40;7.90;;;3.90;;
323;SDS011;149;51.094;17.002;2023-03-23T06:51:06;4.10;;;3.80;;
323;SDS011;149;51.094;17.002;2023-03-23T06:53:32;7.30;;;3.90;;
323;SDS011;149;51.094;17.002;2023-03-23T06:55:58;9.10;;;3.27;;
323;SDS011;149;51.094;17.002;2023-03-23T06:58:25;9.27;;;4.00;;
323;SDS011;149;51.094;17.002;2023-03-23T07:00:54;8.97;;;4.80;;
323;SDS011;149;51.094;17.002;2023-03-23T07:03:24;5.83;;;3.53;;
323;SDS011;149;51.094;17.002;2023-03-23T07:05:51;6.77;;;3.30;;
323;SDS011;149;51.094;17.002;2023-03-23T07:08:17;16.23;;;4.10;;
323;SDS011;149;51.094;17.002;2023-03-23T07:10:42;23.37;;;4.40;;
323;SDS011;149;51.094;17.002;2023-03-23T07:13:08;6.33;;;4.13;;
323;SDS011;149;51.094;17.002;2023-03-23T07:15:34;6.50;;;4.10;;
323;SDS011;149;51.094;17.002;2023-03-23T07:18:01;5.73;;;4.60;;
323;SDS011;149;51.094;17.002;2023-03-23T07:20:26;7.67;;;4.20;;
323;SDS011;149;51.094;17.002;2023-03-23T07:22:53;5.60;;;4.00;;
323;SDS011;149;51.094;17.002;2023-03-23T07:25:19;7.00;;;4.00;;
323;SDS011;149;51.094;17.002;2023-03-23T07:27:45;6.77;;;3.87;;
323;SDS011;149;51.094;17.002;2023-03-23T07:30:12;6.73;;;4.30;;
323;SDS011;149;51.094;17.002;2023-03-23T07:32:40;7.03;;;4.10;;
323;SDS011;149;51.094;17.002;2023-03-23T07:35:06;6.20;;;3.83;;
323;SDS011;149;51.094;17.002;2023-03-23T07:37:34;5.00;;;3.97;;
323;SDS011;149;51.094;17.002;2023-03-23T07:40:01;5.40;;;3.77;;
323;SDS011;149;51.094;17.002;2023-03-23T07:42:39;8.30;;;6.40;;
323;SDS011;149;51.094;17.002;2023-03-23T07:45:10;4.73;;;3.90;;
323;SDS011;149;51.094;17.002;2023-03-23T07:47:37;4.40;;;3.40;;
323;SDS011;149;51.094;17.002;2023-03-23T07:50:03;4.80;;;3.87;;
323;SDS011;149;51.094;17.002;2023-03-23T07:52:30;5.53;;;4.13;;
323;SDS011;149;51.094;17.002;2023-03-23T07:54:56;11.07;;;4.60;;
323;SDS011;149;51.094;17.002;2023-03-23T07:57:22;8.83;;;4.53;;
323;SDS011;149;51.094;17.002;2023-03-23T07:59:48;6.57;;;5.97;;
323;SDS011;149;51.094;17.002;2023-03-23T08:02:13;5.87;;;4.33;;
323;SDS011;149;51.094;17.002;2023-03-23T08:04:40;7.00;;;4.67;;
323;SDS011;149;51.094;17.002;2023-03-23T08:07:05;11.10;;;4.70;;
323;SDS011;149;51.094;17.002;2023-03-23T08:09:31;6.97;;;5.60;;
323;SDS011;149;51.094;17.002;2023-03-23T08:11:57;5.63;;;5.00;;
323;SDS011;149;51.094;17.002;2023-03-23T08:14:23;6.23;;;4.83;;
323;SDS011;149;51.094;17.002;2023-03-23T08:16:53;7.63;;;5.60;;
323;SDS011;149;51.094;17.002;2023-03-23T08:19:21;7.27;;;5.37;;
323;SDS011;149;51.094;17.002;2023-03-23T08:21:47;4.47;;;3.80;;
323;SDS011;149;51.094;17.002;2023-03-23T08:24:14;8.27;;;4.73;;
323;SDS011;149;51.094;17.002;2023-03-23T08:26:40;8.00;;;4.43;;
323;SDS011;149;51.094;17.002;2023-03-23T08:29:06;7.47;;;4.07;;
323;SDS011;149;51.094;17.002;2023-03-23T08:31:33;6.10;;;3.73;;
323;SDS011;149;51.094;17.002;2023-03-23T08:34:03;8.53;;;4.30;;
323;SDS011;149;51.094;17.002;2023-03-23T08:36:33;5.27;;;3.87;;
323;SDS011;149;51.094;17.002;2023-03-23T08:39:00;4.03;;;3.10;;
323;SDS011;149;51.094;17.002;2023-03-23T08:41:26;4.80;;;2.80;;
323;SDS011;149;51.094;17.002;2023-03-23T08:43:52;3.73;;;3.00;;
323;SDS011;149;51.094;17.002;2023-03-23T08:46:18;3.77;;;2.97;;
323;SDS011;149;51.094;17.002;2023-03-23T08:48:44;4.20;;;2.87;;
323;SDS011;149;51.094;17.002;2023-03-23T08:51:11;3.50;;;3.20;;
323;SDS011;149;51.094;17.002;2023-03-23T08:53:37;4.57;;;2.57;;
323;SDS011;149;51.094;17.002;2023-03-23T08:56:07;4.53;;;3.13;;
323;SDS011;149;51.094;17.002;2023-03-23T08:58:34;3.70;;;2.90;;
323;SDS011;149;51.094;17.002;2023-03-23T09:01:02;6.07;;;3.10;;
323;SDS011;149;51.094;17.002;2023-03-23T09:03:28;4.70;;;3.40;;
323;SDS011;149;51.094;17.002;2023-03-23T09:05:58;3.30;;;3.00;;
323;SDS011;149;51.094;17.002;2023-03-23T09:08:26;3.73;;;3.40;;
323;SDS011;149;51.094;17.002;2023-03-23T09:10:54;4.60;;;3.30;;
323;SDS011;149;51.094;17.002;2023-03-23T09:13:30;4.20;;;2.73;;
323;SDS011;149;51.094;17.002;2023-03-23T09:15:56;4.47;;;2.80;;
323;SDS011;149;51.094;17.002;2023-03-23T09:18:22;6.27;;;3.10;;
323;SDS011;149;51.094;17.002;2023-03-23T09:20:52;3.83;;;3.10;;
323;SDS011;149;51.094;17.002;2023-03-23T09:23:19;3.50;;;3.20;;
323;SDS011;149;51.094;17.002;2023-03-23T09:25:45;4.47;;;3.50;;
323;SDS011;149;51.094;17.002;2023-03-23T09:28:12;4.10;;;3.30;;
323;SDS011;149;51.094;17.002;2023-03-23T09:30:38;4.20;;;3.63;;
323;SDS011;149;51.094;17.002;2023-03-23T09:33:05;3.60;;;2.97;;
323;SDS011;149;51.094;17.002;2023-03-23T09:35:33;5.20;;;2.90;;
323;SDS011;149;51.094;17.002;2023-03-23T09:38:01;6.23;;;3.63;;
323;SDS011;149;51.094;17.002;2023-03-23T09:40:50;3.63;;;2.33;;
323;SDS011;149;51.094;17.002;2023-03-23T09:46:42;3.80;;;2.87;;
323;SDS011;149;51.094;17.002;2023-03-23T09:49:32;5.43;;;2.80;;
323;SDS011;149;51.094;17.002;2023-03-23T09:52:15;3.00;;;2.70;;
323;SDS011;149;51.094;17.002;2023-03-23T09:54:43;3.67;;;2.50;;
323;SDS011;149;51.094;17.002;2023-03-23T10:00:24;6.73;;;3.33;;
323;SDS011;149;51.094;17.002;2023-03-23T10:03:00;6.13;;;2.83;;
323;SDS011;149;51.094;17.002;2023-03-23T10:05:37;2.93;;;2.30;;
323;SDS011;149;51.094;17.002;2023-03-23T10:08:11;2.20;;;2.00;;
323;SDS011;149;51.094;17.002;2023-03-23T10:13:18;2.20;;;1.90;;
323;SDS011;149;51.094;17.002;2023-03-23T10:15:57;5.83;;;2.53;;
323;SDS011;149;51.094;17.002;2023-03-23T10:18:29;3.37;;;2.47;;
323;SDS011;149;51.094;17.002;2023-03-23T10:21:17;8.13;;;2.60;;
323;SDS011;149;51.094;17.002;2023-03-23T10:23:58;4.80;;;1.80;;
323;SDS011;149;51.094;17.002;2023-03-23T10:29:21;5.53;;;2.23;;
323;SDS011;149;51.094;17.002;2023-03-23T10:31:58;2.43;;;1.57;;
323;SDS011;149;51.094;17.002;2023-03-23T10:37:25;8.90;;;2.20;;
323;SDS011;149;51.094;17.002;2023-03-23T10:40:02;2.40;;;1.37;;
323;SDS011;149;51.094;17.002;2023-03-23T10:42:35;2.90;;;1.97;;
323;SDS011;149;51.094;17.002;2023-03-23T10:47:43;2.23;;;1.67;;
323;SDS011;149;51.094;17.002;2023-03-23T10:50:16;3.43;;;1.77;;
323;SDS011;149;51.094;17.002;2023-03-23T10:52:47;5.83;;;1.90;;
323;SDS011;149;51.094;17.002;2023-03-23T10:55:19;1.97;;;1.50;;
323;SDS011;149;51.094;17.002;2023-03-23T10:58:01;1.97;;;1.40;;
323;SDS011;149;51.094;17.002;2023-03-23T11:00:32;2.37;;;1.50;;
323;SDS011;149;51.094;17.002;2023-03-23T11:05:44;3.00;;;1.60;;
323;SDS011;149;51.094;17.002;2023-03-23T11:08:23;1.60;;;1.50;;
323;SDS011;149;51.094;17.002;2023-03-23T11:10:52;2.20;;;2.00;;
323;SDS011;149;51.094;17.002;2023-03-23T11:13:20;3.57;;;2.10;;
323;SDS011;149;51.094;17.002;2023-03-23T11:15:48;1.83;;;1.40;;
323;SDS011;149;51.094;17.002;2023-03-23T11:18:22;1.40;;;1.30;;
323;SDS011;149;51.094;17.002;2023-03-23T11:21:11;3.73;;;1.57;;
323;SDS011;149;51.094;17.002;2023-03-23T11:23:42;4.33;;;1.87;;
323;SDS011;149;51.094;17.002;2023-03-23T11:26:20;1.33;;;1.23;;
323;SDS011;149;51.094;17.002;2023-03-23T11:31:36;3.10;;;1.47;;
323;SDS011;149;51.094;17.002;2023-03-23T11:34:15;5.03;;;2.17;;
323;SDS011;149;51.094;17.002;2023-03-23T11:36:50;1.73;;;1.40;;
323;SDS011;149;51.094;17.002;2023-03-23T11:39:21;2.10;;;1.80;;
323;SDS011;149;51.094;17.002;2023-03-23T11:41:52;1.57;;;1.47;;
323;SDS011;149;51.094;17.002;2023-03-23T11:44:20;2.33;;;1.57;;
323;SDS011;149;51.094;17.002;2023-03-23T11:47:01;2.00;;;1.53;;
323;SDS011;149;51.094;17.002;2023-03-23T11:49:49;5.10;;;1.60;;
323;SDS011;149;51.094;17.002;2023-03-23T11:55:19;2.80;;;2.10;;
323;SDS011;149;51.094;17.002;2023-03-23T11:57:49;1.40;;;1.30;;
323;SDS011;149;51.094;17.002;2023-03-23T12:00:16;1.80;;;1.50;;
323;SDS011;149;51.094;17.002;2023-03-23T12:05:59;3.50;;;2.50;;
323;SDS011;149;51.094;17.002;2023-03-23T12:14:41;2.30;;;1.50;;
323;SDS011;149;51.094;17.002;2023-03-23T12:22:48;3.50;;;2.40;;
323;SDS011;149;51.094;17.002;2023-03-23T12:28:01;2.50;;;1.97;;
323;SDS011;149;51.094;17.002;2023-03-23T12:30:41;1.67;;;1.53;;
323;SDS011;149;51.094;17.002;2023-03-23T12:44:31;2.37;;;1.90;;
323;SDS011;149;51.094;17.002;2023-03-23T12:47:39;1.77;;;1.60;;
323;SDS011;149;51.094;17.002;2023-03-23T12:50:24;6.93;;;2.97;;
323;SDS011;149;51.094;17.002;2023-03-23T12:53:21;3.90;;;2.23;;
323;SDS011;149;51.094;17.002;2023-03-23T12:58:45;1.73;;;1.40;;
323;SDS011;149;51.094;17.002;2023-03-23T13:01:25;1.67;;;1.57;;
323;SDS011;149;51.094;17.002;2023-03-23T13:06:41;4.53;;;1.70;;
323;SDS011;149;51.094;17.002;2023-03-23T13:09:19;3.33;;;2.10;;
323;SDS011;149;51.094;17.002;2023-03-23T13:11:48;2.63;;;1.57;;
323;SDS011;149;51.094;17.002;2023-03-23T13:14:25;4.17;;;2.70;;
323;SDS011;149;51.094;17.002;2023-03-23T13:25:38;5.93;;;2.17;;
323;SDS011;149;51.094;17.002;2023-03-23T13:29:12;11.00;;;2.60;;
323;SDS011;149;51.094;17.002;2023-03-23T13:31:31;2.40;;;2.20;;
323;SDS011;149;51.094;17.002;2023-03-23T13:34:01;4.83;;;3.20;;
323;SDS011;149;51.094;17.002;2023-03-23T13:36:40;4.07;;;1.97;;
323;SDS011;149;51.094;17.002;2023-03-23T13:39:51;3.47;;;2.67;;
323;SDS011;149;51.094;17.002;2023-03-23T13:49:59;2.50;;;2.07;;
323;SDS011;149;51.094;17.002;2023-03-23T14:05:39;3.57;;;2.30;;
323;SDS011;149;51.094;17.002;2023-03-23T14:13:20;3.77;;;2.50;;
323;SDS011;149;51.094;17.002;2023-03-23T14:16:19;3.20;;;2.33;;
323;SDS011;149;51.094;17.002;2023-03-23T14:18:54;3.23;;;2.60;;
323;SDS011;149;51.094;17.002;2023-03-23T14:21:34;3.90;;;2.53;;
323;SDS011;149;51.094;17.002;2023-03-23T14:24:15;7.20;;;2.93;;
323;SDS011;149;51.094;17.002;2023-03-23T14:26:43;4.20;;;2.93;;
323;SDS011;149;51.094;17.002;2023-03-23T14:29:10;3.10;;;2.77;;
323;SDS011;149;51.094;17.002;2023-03-23T14:31:37;3.33;;;2.33;;
323;SDS011;149;51.094;17.002;2023-03-23T14:34:12;2.83;;;2.30;;
323;SDS011;149;51.094;17.002;2023-03-23T14:36:44;2.50;;;2.30;;
323;SDS011;149;51.094;17.002;2023-03-23T14:39:16;5.40;;;2.70;;
323;SDS011;149;51.094;17.002;2023-03-23T14:41:50;3.10;;;2.37;;
323;SDS011;149;51.094;17.002;2023-03-23T14:44:21;5.33;;;2.73;;
323;SDS011;149;51.094;17.002;2023-03-23T14:46:53;3.80;;;2.70;;
323;SDS011;149;51.094;17.002;2023-03-23T14:49:25;5.13;;;2.87;;
323;SDS011;149;51.094;17.002;2023-03-23T14:52:02;4.50;;;3.00;;
323;SDS011;149;51.094;17.002;2023-03-23T14:54:38;5.30;;;3.00;;
323;SDS011;149;51.094;17.002;2023-03-23T14:57:15;7.03;;;2.57;;
323;SDS011;149;51.094;17.002;2023-03-23T14:59:47;3.47;;;2.70;;
323;SDS011;149;51.094;17.002;2023-03-23T15:02:17;2.87;;;2.47;;
323;SDS011;149;51.094;17.002;2023-03-23T15:04:56;3.60;;;3.10;;
323;SDS011;149;51.094;17.002;2023-03-23T15:07:29;3.87;;;2.90;;
323;SDS011;149;51.094;17.002;2023-03-23T15:10:05;2.27;;;1.70;;
323;SDS011;149;51.094;17.002;2023-03-23T15:12:32;7.43;;;4.27;;
323;SDS011;149;51.094;17.002;2023-03-23T15:15:01;7.00;;;2.80;;
323;SDS011;149;51.094;17.002;2023-03-23T15:17:36;3.70;;;2.93;;
323;SDS011;149;51.094;17.002;2023-03-23T15:20:10;2.73;;;2.30;;
323;SDS011;149;51.094;17.002;2023-03-23T15:22:47;8.60;;;3.80;;
323;SDS011;149;51.094;17.002;2023-03-23T15:25:18;4.67;;;4.27;;
323;SDS011;149;51.094;17.002;2023-03-23T15:28:31;6.10;;;3.40;;
323;SDS011;149;51.094;17.002;2023-03-23T15:30:48;3.23;;;2.93;;
323;SDS011;149;51.094;17.002;2023-03-23T15:33:19;3.50;;;3.20;;
323;SDS011;149;51.094;17.002;2023-03-23T15:35:51;11.73;;;4.13;;
323;SDS011;149;51.094;17.002;2023-03-23T15:40:52;5.13;;;3.47;;
323;SDS011;149;51.094;17.002;2023-03-23T15:51:28;5.13;;;3.50;;
323;SDS011;149;51.094;17.002;2023-03-23T15:53:58;6.50;;;3.27;;
323;SDS011;149;51.094;17.002;2023-03-23T15:56:24;19.87;;;4.20;;
323;SDS011;149;51.094;17.002;2023-03-23T15:58:51;5.00;;;3.37;;
323;SDS011;149;51.094;17.002;2023-03-23T16:01:19;6.60;;;3.67;;
323;SDS011;149;51.094;17.002;2023-03-23T16:03:51;7.50;;;3.60;;
323;SDS011;149;51.094;17.002;2023-03-23T16:06:20;4.40;;;3.63;;
323;SDS011;149;51.094;17.002;2023-03-23T16:08:53;3.63;;;3.23;;
323;SDS011;149;51.094;17.002;2023-03-23T16:11:22;4.17;;;3.77;;
323;SDS011;149;51.094;17.002;2023-03-23T16:13:51;9.30;;;4.40;;
323;SDS011;149;51.094;17.002;2023-03-23T16:16:28;3.27;;;2.97;;
323;SDS011;149;51.094;17.002;2023-03-23T16:18:59;7.90;;;4.53;;
323;SDS011;149;51.094;17.002;2023-03-23T16:21:26;4.40;;;3.60;;
323;SDS011;149;51.094;17.002;2023-03-23T16:23:55;13.13;;;3.60;;
323;SDS011;149;51.094;17.002;2023-03-23T16:26:22;6.70;;;3.90;;
323;SDS011;149;51.094;17.002;2023-03-23T16:28:50;6.57;;;4.57;;
323;SDS011;149;51.094;17.002;2023-03-23T16:31:28;5.67;;;4.80;;
323;SDS011;149;51.094;17.002;2023-03-23T16:33:55;8.33;;;4.43;;
323;SDS011;149;51.094;17.002;2023-03-23T16:36:22;6.57;;;3.87;;
323;SDS011;149;51.094;17.002;2023-03-23T16:38:49;7.33;;;4.47;;
323;SDS011;149;51.094;17.002;2023-03-23T16:41:19;6.43;;;4.43;;
323;SDS011;149;51.094;17.002;2023-03-23T16:43:46;7.20;;;3.87;;
323;SDS011;149;51.094;17.002;2023-03-23T16:46:13;10.67;;;4.13;;
323;SDS011;149;51.094;17.002;2023-03-23T16:48:40;7.40;;;3.00;;
323;SDS011;149;51.094;17.002;2023-03-23T16:51:07;6.00;;;3.73;;
323;SDS011;149;51.094;17.002;2023-03-23T16:53:34;6.13;;;4.43;;
323;SDS011;149;51.094;17.002;2023-03-23T16:56:02;6.97;;;3.97;;
323;SDS011;149;51.094;17.002;2023-03-23T16:58:30;6.30;;;4.17;;
323;SDS011;149;51.094;17.002;2023-03-23T17:00:57;8.33;;;4.60;;
323;SDS011;149;51.094;17.002;2023-03-23T17:03:23;8.40;;;4.03;;
323;SDS011;149;51.094;17.002;2023-03-23T17:05:51;5.50;;;4.50;;
323;SDS011;149;51.094;17.002;2023-03-23T17:08:18;8.33;;;4.13;;
323;SDS011;149;51.094;17.002;2023-03-23T17:10:46;5.10;;;3.70;;
323;SDS011;149;51.094;17.002;2023-03-23T17:13:14;11.13;;;3.77;;
323;SDS011;149;51.094;17.002;2023-03-23T17:15:41;3.90;;;3.30;;
323;SDS011;149;51.094;17.002;2023-03-23T17:18:12;9.87;;;4.70;;
323;SDS011;149;51.094;17.002;2023-03-23T17:20:40;6.57;;;4.70;;
323;SDS011;149;51.094;17.002;2023-03-23T17:23:07;7.90;;;4.97;;
323;SDS011;149;51.094;17.002;2023-03-23T17:25:34;10.10;;;6.37;;
323;SDS011;149;51.094;17.002;2023-03-23T17:28:02;12.17;;;6.70;;
323;SDS011;149;51.094;17.002;2023-03-23T17:30:31;7.67;;;6.30;;
323;SDS011;149;51.094;17.002;2023-03-23T17:32:58;5.67;;;4.20;;
323;SDS011;149;51.094;17.002;2023-03-23T17:35:25;10.23;;;6.20;;
323;SDS011;149;51.094;17.002;2023-03-23T17:37:52;9.50;;;5.80;;
323;SDS011;149;51.094;17.002;2023-03-23T17:40:19;10.87;;;4.90;;
323;SDS011;149;51.094;17.002;2023-03-23T17:42:46;8.50;;;5.20;;
323;SDS011;149;51.094;17.002;2023-03-23T17:45:12;4.73;;;3.83;;
323;SDS011;149;51.094;17.002;2023-03-23T17:47:39;12.80;;;3.57;;
323;SDS011;149;51.094;17.002;2023-03-23T17:50:06;6.23;;;3.50;;
323;SDS011;149;51.094;17.002;2023-03-23T17:52:37;4.30;;;3.30;;
323;SDS011;149;51.094;17.002;2023-03-23T17:55:05;6.00;;;3.70;;
323;SDS011;149;51.094;17.002;2023-03-23T17:57:32;5.27;;;3.47;;